createdAt,value
2017-09-06T00:00:19.314Z,12.27
2017-09-06T00:02:46.166Z,14.03
2017-09-06T00:05:12.456Z,10.60
2017-09-06T00:07:38.790Z,11.70
2017-09-06T00:10:07.277Z,12.63
2017-09-06T00:12:33.573Z,13.47
2017-09-06T00:15:00.822Z,11.33
2017-09-06T00:17:29.150Z,11.00
2017-09-06T00:19:57.191Z,13.77
2017-09-06T00:22:23.490Z,13.60
2017-09-06T00:24:49.812Z,11.70
2017-09-06T00:27:16.089Z,11.70
2017-09-06T00:29:42.384Z,12.40
2017-09-06T00:32:08.675Z,13.13
2017-09-06T00:34:35.048Z,13.90
2017-09-06T00:37:01.332Z,12.77
2017-09-06T00:39:27.638Z,12.97
2017-09-06T00:41:53.920Z,10.57
2017-09-06T00:44:20.235Z,13.37
2017-09-06T00:46:46.553Z,14.87
2017-09-06T00:49:12.854Z,13.73
2017-09-06T00:51:39.152Z,16.97
2017-09-06T00:54:05.447Z,15.07
2017-09-06T00:56:31.774Z,13.90
2017-09-06T00:58:58.090Z,15.03
2017-09-06T01:01:24.421Z,13.20
2017-09-06T01:03:51.273Z,13.50
2017-09-06T01:06:17.593Z,13.60
2017-09-06T01:08:43.874Z,11.83
2017-09-06T01:11:10.201Z,12.33
2017-09-06T01:13:36.517Z,12.13
2017-09-06T01:16:02.837Z,12.93
2017-09-06T01:18:29.133Z,11.17
2017-09-06T01:20:55.465Z,10.87
2017-09-06T01:23:21.797Z,12.23
2017-09-06T01:25:48.116Z,13.13
2017-09-06T01:28:14.447Z,14.57
2017-09-06T01:30:40.730Z,15.40
2017-09-06T01:33:07.062Z,14.10
2017-09-06T01:35:33.382Z,16.17
2017-09-06T01:37:59.697Z,15.37
2017-09-06T01:40:25.990Z,15.53
2017-09-06T01:42:52.322Z,17.20
2017-09-06T01:45:18.637Z,16.27
2017-09-06T01:47:44.959Z,17.60
2017-09-06T01:50:11.258Z,14.83
2017-09-06T01:52:37.551Z,16.53
2017-09-06T01:55:03.869Z,14.00
2017-09-06T01:57:30.162Z,13.53
2017-09-06T01:59:56.499Z,12.90
2017-09-06T02:02:22.799Z,12.07
2017-09-06T02:04:49.088Z,12.47
2017-09-06T02:07:15.368Z,11.70
2017-09-06T02:09:41.652Z,11.83
2017-09-06T02:12:07.949Z,13.67
2017-09-06T02:14:34.188Z,12.57
2017-09-06T02:17:01.115Z,11.97
2017-09-06T02:19:27.390Z,12.37
2017-09-06T02:21:53.666Z,11.80
2017-09-06T02:24:19.978Z,11.77
2017-09-06T02:26:46.251Z,11.47
2017-09-06T02:29:12.537Z,10.93
2017-09-06T02:31:38.817Z,11.60
2017-09-06T02:34:05.127Z,13.00
2017-09-06T02:36:31.420Z,11.57
2017-09-06T02:38:57.718Z,10.53
2017-09-06T02:41:24.021Z,9.70
2017-09-06T02:43:50.345Z,9.67
2017-09-06T02:46:16.637Z,11.23
2017-09-06T02:48:43.967Z,13.90
2017-09-06T02:51:10.302Z,15.37
2017-09-06T02:53:36.595Z,13.50
2017-09-06T02:56:02.910Z,13.30
2017-09-06T02:58:29.184Z,13.70
2017-09-06T03:00:55.486Z,12.93
2017-09-06T03:03:21.802Z,12.30
2017-09-06T03:05:48.106Z,13.17
2017-09-06T03:08:14.394Z,9.93
2017-09-06T03:10:40.683Z,10.97
2017-09-06T03:13:07.016Z,10.33
2017-09-06T03:15:33.291Z,9.73
2017-09-06T03:17:59.594Z,9.80
2017-09-06T03:20:25.854Z,9.87
2017-09-06T03:22:52.178Z,9.67
2017-09-06T03:25:18.475Z,10.50
2017-09-06T03:27:44.736Z,9.80
2017-09-06T03:30:11.025Z,10.53
2017-09-06T03:32:37.303Z,9.57
2017-09-06T03:35:03.599Z,11.47
2017-09-06T03:37:29.888Z,13.43
2017-09-06T03:39:56.194Z,12.37
2017-09-06T03:42:22.506Z,11.90
2017-09-06T03:44:49.290Z,11.53
2017-09-06T03:47:15.570Z,11.33
2017-09-06T03:49:41.861Z,10.40
2017-09-06T03:52:08.162Z,9.33
2017-09-06T03:54:34.453Z,9.83
2017-09-06T03:57:00.767Z,8.40
2017-09-06T03:59:27.052Z,8.10
2017-09-06T04:01:53.353Z,8.00
2017-09-06T04:04:19.649Z,8.10
2017-09-06T04:06:45.959Z,7.30
2017-09-06T04:09:12.243Z,8.03
2017-09-06T04:11:38.522Z,7.20
2017-09-06T04:14:04.842Z,6.50
2017-09-06T04:16:31.117Z,6.67
2017-09-06T04:18:57.426Z,6.13
2017-09-06T04:21:23.746Z,8.53
2017-09-06T04:23:50.062Z,6.60
2017-09-06T04:26:16.363Z,6.80
2017-09-06T04:28:42.681Z,6.93
2017-09-06T04:31:08.950Z,6.70
2017-09-06T04:33:35.244Z,7.20
2017-09-06T04:36:01.537Z,6.47
2017-09-06T04:38:27.813Z,6.70
2017-09-06T04:40:54.099Z,6.07
2017-09-06T04:43:20.375Z,6.03
2017-09-06T04:45:46.669Z,6.20
2017-09-06T04:48:12.932Z,5.90
2017-09-06T04:50:39.483Z,6.20
2017-09-06T04:53:05.790Z,5.30
2017-09-06T04:55:32.073Z,6.60
2017-09-06T04:57:58.395Z,6.07
2017-09-06T05:00:24.697Z,7.60
2017-09-06T05:02:51.005Z,5.70
2017-09-06T05:05:17.293Z,6.13
2017-09-06T05:07:43.600Z,5.83
2017-09-06T05:10:09.914Z,6.80
2017-09-06T05:12:36.259Z,5.43
2017-09-06T05:15:02.548Z,6.40
2017-09-06T05:17:28.840Z,5.60
2017-09-06T05:19:55.118Z,6.90
2017-09-06T05:22:21.413Z,5.70
2017-09-06T05:24:47.749Z,7.13
2017-09-06T05:27:14.062Z,9.17
2017-09-06T05:29:40.353Z,8.40
2017-09-06T05:32:06.616Z,8.50
2017-09-06T05:34:32.902Z,8.63
2017-09-06T05:36:59.224Z,9.67
2017-09-06T05:39:25.516Z,9.13
2017-09-06T05:41:51.817Z,9.53
2017-09-06T05:44:18.098Z,8.83
2017-09-06T05:46:44.400Z,8.67
2017-09-06T05:49:10.682Z,8.87
2017-09-06T05:51:36.980Z,9.47
2017-09-06T05:54:03.278Z,10.40
2017-09-06T05:56:29.542Z,14.00
2017-09-06T05:58:55.825Z,8.13
2017-09-06T06:01:22.169Z,8.33
2017-09-06T06:03:48.475Z,9.80
2017-09-06T06:06:14.746Z,12.80
2017-09-06T06:08:41.050Z,12.97
2017-09-06T06:11:07.332Z,15.57
2017-09-06T06:13:34.105Z,13.17
2017-09-06T06:16:00.369Z,13.13
2017-09-06T06:18:26.656Z,14.03
2017-09-06T06:20:52.941Z,12.20
2017-09-06T06:23:19.221Z,10.00
2017-09-06T06:25:45.507Z,7.10
2017-09-06T06:28:11.762Z,5.70
2017-09-06T06:30:38.087Z,5.17
2017-09-06T06:33:04.371Z,5.17
2017-09-06T06:35:30.663Z,4.57
2017-09-06T06:37:56.947Z,5.13
2017-09-06T06:40:23.236Z,5.43
2017-09-06T06:42:49.529Z,3.90
2017-09-06T06:45:15.814Z,4.73
2017-09-06T06:47:42.106Z,5.67
2017-09-06T06:50:08.382Z,5.20
2017-09-06T06:52:34.673Z,7.10
2017-09-06T06:55:00.951Z,5.17
2017-09-06T06:57:27.263Z,4.73
2017-09-06T06:59:53.562Z,4.27
2017-09-06T07:02:19.851Z,4.10
2017-09-06T07:04:46.192Z,3.30
2017-09-06T07:07:12.471Z,3.03
2017-09-06T07:09:38.798Z,3.10
2017-09-06T07:12:05.078Z,5.47
2017-09-06T07:14:31.762Z,3.97
2017-09-06T07:16:58.048Z,3.43
2017-09-06T07:19:24.331Z,2.70
2017-09-06T07:21:50.651Z,3.60
2017-09-06T07:24:16.930Z,4.80
2017-09-06T07:26:43.242Z,2.70
2017-09-06T07:29:09.527Z,2.70
2017-09-06T07:31:35.841Z,5.63
2017-09-06T07:34:02.151Z,3.27
2017-09-06T07:36:28.453Z,3.33
2017-09-06T07:38:54.718Z,3.80
2017-09-06T07:41:21.017Z,5.50
2017-09-06T07:43:47.348Z,4.63
2017-09-06T07:46:13.671Z,5.90
2017-09-06T07:48:39.969Z,2.90
2017-09-06T07:51:06.292Z,3.00
2017-09-06T07:53:32.619Z,3.47
2017-09-06T07:55:58.899Z,4.30
2017-09-06T07:58:25.201Z,3.87
2017-09-06T08:00:51.529Z,3.63
2017-09-06T08:03:17.806Z,4.37
2017-09-06T08:05:44.140Z,4.07
2017-09-06T08:08:10.439Z,3.90
2017-09-06T08:10:37.736Z,3.50
2017-09-06T08:13:04.034Z,3.40
2017-09-06T08:15:30.333Z,2.70
2017-09-06T08:17:56.589Z,2.97
2017-09-06T08:20:22.881Z,4.10
2017-09-06T08:22:49.152Z,4.73
2017-09-06T08:25:15.438Z,4.20
2017-09-06T08:27:41.751Z,3.97
2017-09-06T08:30:08.038Z,3.30
2017-09-06T08:32:34.318Z,5.00
2017-09-06T08:35:00.616Z,3.07
2017-09-06T08:37:26.931Z,3.10
2017-09-06T08:39:53.231Z,3.20
2017-09-06T08:42:19.549Z,3.37
2017-09-06T08:44:45.810Z,2.23
2017-09-06T08:47:12.116Z,2.77
2017-09-06T08:49:38.369Z,3.53
2017-09-06T08:52:04.678Z,2.63
2017-09-06T08:54:30.962Z,1.27
2017-09-06T08:56:57.252Z,1.70
2017-09-06T08:59:23.555Z,2.07
2017-09-06T09:01:49.835Z,1.60
2017-09-06T09:04:16.174Z,1.63
2017-09-06T09:06:42.492Z,1.40
2017-09-06T09:09:08.770Z,1.23
2017-09-06T09:11:35.095Z,1.53
2017-09-06T09:14:01.382Z,1.33
2017-09-06T09:16:27.694Z,1.43
2017-09-06T09:19:05.325Z,1.80
2017-09-06T09:21:31.616Z,1.43
2017-09-06T09:23:57.938Z,1.10
2017-09-06T09:26:24.225Z,2.27
2017-09-06T09:28:50.503Z,1.37
2017-09-06T09:31:16.830Z,3.07
2017-09-06T09:33:43.118Z,1.23
2017-09-06T09:36:09.445Z,1.70
2017-09-06T09:38:36.255Z,1.30
2017-09-06T09:41:02.554Z,2.03
2017-09-06T09:43:28.886Z,1.53
2017-09-06T09:45:55.190Z,1.40
2017-09-06T09:48:21.530Z,1.53
2017-09-06T09:50:47.810Z,1.10
2017-09-06T09:53:14.118Z,1.40
2017-09-06T09:55:40.430Z,1.20
2017-09-06T09:58:06.744Z,0.90
2017-09-06T10:00:33.013Z,1.70
2017-09-06T10:02:59.295Z,0.90
2017-09-06T10:05:25.611Z,1.30
2017-09-06T10:07:51.896Z,2.20
2017-09-06T10:10:18.181Z,0.60
2017-09-06T10:12:44.457Z,1.00
2017-09-06T10:15:10.794Z,1.33
2017-09-06T10:17:37.094Z,1.13
2017-09-06T10:20:03.810Z,1.53
2017-09-06T10:22:30.169Z,1.10
2017-09-06T10:24:56.457Z,1.37
2017-09-06T10:27:22.758Z,0.97
2017-09-06T10:29:49.062Z,2.37
2017-09-06T10:32:15.364Z,1.30
2017-09-06T10:34:41.630Z,1.33
2017-09-06T10:37:07.919Z,0.83
2017-09-06T10:39:34.193Z,1.33
2017-09-06T10:42:00.512Z,0.83
2017-09-06T10:44:26.825Z,1.10
2017-09-06T10:46:53.120Z,1.23
2017-09-06T10:49:19.402Z,0.90
2017-09-06T10:51:45.733Z,1.17
2017-09-06T10:54:12.057Z,1.70
2017-09-06T10:56:38.319Z,1.53
2017-09-06T10:59:04.668Z,1.60
2017-09-06T11:01:30.929Z,1.00
2017-09-06T11:03:57.219Z,1.10
2017-09-06T11:06:23.567Z,1.10
2017-09-06T11:08:49.850Z,0.80
2017-09-06T11:11:16.152Z,0.90
2017-09-06T11:13:42.448Z,1.70
2017-09-06T11:16:08.758Z,1.60
2017-09-06T11:18:35.064Z,1.07
2017-09-06T11:21:01.337Z,0.80
2017-09-06T11:23:27.650Z,1.47
2017-09-06T11:25:53.968Z,1.10
2017-09-06T11:28:20.250Z,1.20
2017-09-06T11:30:46.545Z,1.83
2017-09-06T11:33:12.867Z,0.80
2017-09-06T11:35:39.161Z,0.93
2017-09-06T11:38:05.462Z,1.13
2017-09-06T11:40:31.750Z,1.00
2017-09-06T11:42:58.051Z,0.80
2017-09-06T11:45:24.360Z,0.97
2017-09-06T11:47:50.672Z,1.10
2017-09-06T11:50:16.954Z,1.53
2017-09-06T11:52:43.271Z,3.07
2017-09-06T11:55:09.626Z,1.27
2017-09-06T11:57:35.910Z,1.23
2017-09-06T12:00:02.268Z,1.50
2017-09-06T12:02:28.563Z,1.90
2017-09-06T12:04:54.852Z,1.60
2017-09-06T12:07:21.162Z,1.07
2017-09-06T12:09:47.505Z,0.80
2017-09-06T12:12:13.819Z,0.90
2017-09-06T12:14:40.129Z,1.17
2017-09-06T12:17:06.421Z,1.90
2017-09-06T12:19:32.685Z,0.67
2017-09-06T12:21:58.981Z,0.50
2017-09-06T12:24:25.253Z,1.50
2017-09-06T12:26:51.550Z,1.17
2017-09-06T12:29:18.737Z,1.53
2017-09-06T12:31:45.019Z,0.80
2017-09-06T12:34:11.295Z,1.43
2017-09-06T12:36:37.574Z,1.53
2017-09-06T12:39:03.919Z,0.97
2017-09-06T12:41:30.189Z,0.80
2017-09-06T12:43:56.503Z,2.10
2017-09-06T12:46:22.794Z,1.67
2017-09-06T12:48:49.095Z,2.37
2017-09-06T12:51:15.410Z,1.17
2017-09-06T12:53:41.728Z,0.90
2017-09-06T12:56:08.001Z,1.13
2017-09-06T12:58:34.284Z,1.40
2017-09-06T13:01:00.607Z,1.43
2017-09-06T13:03:26.928Z,0.90
2017-09-06T13:05:53.230Z,0.73
2017-09-06T13:08:19.516Z,0.90
2017-09-06T13:10:45.826Z,1.27
2017-09-06T13:13:12.134Z,1.37
2017-09-06T13:15:38.469Z,0.90
2017-09-06T13:18:04.772Z,1.10
2017-09-06T13:20:31.097Z,1.10
2017-09-06T13:22:57.443Z,1.07
2017-09-06T13:25:23.731Z,1.17
2017-09-06T13:27:50.044Z,1.00
2017-09-06T13:30:16.331Z,1.70
2017-09-06T13:32:42.634Z,1.20
2017-09-06T13:35:08.983Z,0.70
2017-09-06T13:37:35.520Z,2.50
2017-09-06T13:40:01.782Z,1.10
2017-09-06T13:42:28.077Z,1.77
2017-09-06T13:44:54.387Z,0.90
2017-09-06T13:47:20.659Z,2.00
2017-09-06T13:49:46.970Z,2.30
2017-09-06T13:52:13.257Z,1.57
2017-09-06T13:54:39.563Z,1.03
2017-09-06T13:57:05.854Z,1.50
2017-09-06T13:59:32.137Z,0.97
2017-09-06T14:01:58.435Z,1.57
2017-09-06T14:04:24.748Z,1.00
2017-09-06T14:06:51.050Z,1.67
2017-09-06T14:09:17.347Z,0.90
2017-09-06T14:11:43.683Z,1.20
2017-09-06T14:14:09.996Z,1.00
2017-09-06T14:16:36.566Z,1.00
2017-09-06T14:19:02.848Z,4.30
2017-09-06T14:21:29.113Z,1.30
2017-09-06T14:23:55.409Z,0.77
2017-09-06T14:26:21.698Z,0.70
2017-09-06T14:28:47.986Z,0.77
2017-09-06T14:31:14.259Z,0.90
2017-09-06T14:33:40.575Z,0.80
2017-09-06T14:36:07.619Z,0.60
2017-09-06T14:38:34.211Z,2.43
2017-09-06T14:41:00.512Z,0.60
2017-09-06T14:43:26.794Z,1.33
2017-09-06T14:45:53.119Z,1.03
2017-09-06T14:48:19.449Z,0.97
2017-09-06T14:50:45.758Z,0.97
2017-09-06T14:53:12.042Z,1.37
2017-09-06T14:55:38.372Z,1.53
2017-09-06T14:58:04.664Z,0.73
2017-09-06T15:00:31.283Z,0.97
2017-09-06T15:02:57.597Z,1.57
2017-09-06T15:05:23.849Z,0.70
2017-09-06T15:07:50.164Z,0.77
2017-09-06T15:10:16.456Z,0.70
2017-09-06T15:12:42.729Z,0.87
2017-09-06T15:15:09.012Z,0.70
2017-09-06T15:17:35.322Z,1.33
2017-09-06T15:20:01.589Z,0.83
2017-09-06T15:22:27.890Z,1.00
2017-09-06T15:24:54.149Z,1.70
2017-09-06T15:27:20.456Z,0.97
2017-09-06T15:29:46.762Z,3.80
2017-09-06T15:32:13.070Z,0.80
2017-09-06T15:34:39.394Z,0.80
2017-09-06T15:37:05.662Z,1.33
2017-09-06T15:39:31.960Z,0.80
2017-09-06T15:41:58.225Z,0.90
2017-09-06T15:44:24.547Z,1.20
2017-09-06T15:46:50.854Z,0.80
2017-09-06T15:49:17.128Z,1.00
2017-09-06T15:51:43.437Z,1.57
2017-09-06T15:54:09.714Z,1.13
2017-09-06T15:56:36.002Z,1.47
2017-09-06T15:59:02.284Z,1.33
2017-09-06T16:01:28.595Z,1.13
2017-09-06T16:03:55.748Z,1.13
2017-09-06T16:06:22.098Z,1.13
2017-09-06T16:08:48.424Z,2.20
2017-09-06T16:11:14.739Z,1.90
2017-09-06T16:13:41.273Z,1.57
2017-09-06T16:16:07.646Z,2.50
2017-09-06T16:18:34.091Z,2.03
2017-09-06T16:21:00.397Z,2.20
2017-09-06T16:23:27.128Z,1.40
2017-09-06T16:25:53.416Z,1.40
2017-09-06T16:28:20.054Z,1.70
2017-09-06T16:30:46.460Z,2.80
2017-09-06T16:33:13.624Z,2.50
2017-09-06T16:35:39.923Z,3.33
2017-09-06T16:38:06.214Z,3.03
2017-09-06T16:40:32.988Z,2.10
2017-09-06T16:42:59.337Z,4.60
2017-09-06T16:45:25.626Z,1.70
2017-09-06T16:47:51.953Z,1.53
2017-09-06T16:50:18.246Z,2.00
2017-09-06T16:52:44.545Z,1.87
2017-09-06T16:55:10.883Z,2.50
2017-09-06T16:57:37.204Z,2.17
2017-09-06T17:00:03.526Z,1.53
2017-09-06T17:02:30.700Z,4.10
2017-09-06T17:04:57.022Z,2.30
2017-09-06T17:07:23.608Z,2.10
2017-09-06T17:09:51.269Z,1.97
2017-09-06T17:12:17.564Z,2.17
2017-09-06T17:14:43.853Z,4.43
2017-09-06T17:17:10.145Z,2.87
2017-09-06T17:19:36.443Z,2.47
2017-09-06T17:22:02.746Z,2.50
2017-09-06T17:24:29.907Z,2.23
2017-09-06T17:26:56.258Z,5.17
2017-09-06T17:29:22.696Z,2.17
2017-09-06T17:31:49.014Z,1.97
2017-09-06T17:34:16.847Z,2.10
2017-09-06T17:36:43.147Z,3.00
2017-09-06T17:39:09.443Z,3.00
2017-09-06T17:41:35.764Z,3.83
2017-09-06T17:44:02.096Z,3.90
2017-09-06T17:46:29.498Z,3.87
2017-09-06T17:48:55.826Z,2.17
2017-09-06T17:51:22.116Z,3.33
2017-09-06T17:53:48.437Z,3.67
2017-09-06T17:56:14.718Z,2.97
2017-09-06T17:58:41.629Z,3.87
2017-09-06T18:01:07.946Z,6.53
2017-09-06T18:03:34.422Z,4.03
2017-09-06T18:06:00.736Z,2.40
2017-09-06T18:08:27.416Z,3.27
2017-09-06T18:10:53.711Z,2.60
2017-09-06T18:13:19.999Z,2.87
2017-09-06T18:15:46.328Z,2.73
2017-09-06T18:18:12.622Z,4.20
2017-09-06T18:20:38.918Z,3.87
2017-09-06T18:23:05.200Z,4.10
2017-09-06T18:25:31.551Z,3.30
2017-09-06T18:27:57.950Z,3.30
2017-09-06T18:30:24.278Z,4.03
2017-09-06T18:32:50.614Z,3.77
2017-09-06T18:35:16.932Z,3.60
2017-09-06T18:37:43.310Z,7.13
2017-09-06T18:40:09.623Z,4.30
2017-09-06T18:42:35.965Z,6.23
2017-09-06T18:45:02.299Z,2.50
2017-09-06T18:47:29.250Z,4.37
2017-09-06T18:49:56.163Z,3.80
2017-09-06T18:52:23.523Z,3.97
2017-09-06T18:54:49.862Z,3.27
2017-09-06T18:57:16.253Z,5.80
2017-09-06T18:59:43.387Z,4.70
2017-09-06T19:02:09.853Z,3.30
2017-09-06T19:04:36.209Z,4.37
2017-09-06T19:07:02.542Z,3.50
2017-09-06T19:09:28.956Z,4.23
2017-09-06T19:11:55.286Z,5.17
2017-09-06T19:14:21.601Z,4.80
2017-09-06T19:16:47.927Z,4.90
2017-09-06T19:19:14.235Z,3.67
2017-09-06T19:21:40.571Z,2.23
2017-09-06T19:24:06.947Z,2.90
2017-09-06T19:26:33.257Z,8.13
2017-09-06T19:28:59.562Z,3.17
2017-09-06T19:31:25.997Z,5.17
2017-09-06T19:33:52.392Z,4.60
2017-09-06T19:36:18.701Z,5.40
2017-09-06T19:38:45.041Z,4.33
2017-09-06T19:41:11.358Z,5.00
2017-09-06T19:43:37.690Z,2.80
2017-09-06T19:46:03.966Z,4.87
2017-09-06T19:48:30.301Z,4.23
2017-09-06T19:50:56.627Z,3.60
2017-09-06T19:53:22.894Z,3.37
2017-09-06T19:55:49.219Z,2.40
2017-09-06T19:58:15.519Z,4.83
2017-09-06T20:00:43.923Z,5.83
2017-09-06T20:03:10.993Z,2.70
2017-09-06T20:05:37.343Z,2.95
2017-09-06T20:08:03.659Z,3.73
2017-09-06T20:10:29.993Z,4.30
2017-09-06T20:12:56.288Z,2.50
2017-09-06T20:15:22.594Z,3.67
2017-09-06T20:17:48.895Z,3.85
2017-09-06T20:20:15.232Z,4.90
2017-09-06T20:22:41.559Z,5.67
2017-09-06T20:25:07.873Z,5.30
2017-09-06T20:27:35.203Z,3.47
2017-09-06T20:30:08.696Z,3.93
2017-09-06T20:32:36.643Z,5.03
2017-09-06T20:35:05.570Z,5.43
2017-09-06T20:37:33.938Z,3.13
2017-09-06T20:40:02.164Z,2.40
2017-09-06T20:42:29.224Z,2.53
2017-09-06T20:44:57.925Z,5.00
2017-09-06T20:47:24.957Z,6.07
2017-09-06T20:49:51.267Z,4.73
2017-09-06T20:52:19.573Z,4.67
2017-09-06T20:54:48.104Z,3.60
2017-09-06T20:57:14.450Z,6.10
2017-09-06T20:59:40.805Z,4.28
2017-09-06T21:02:17.058Z,3.03
2017-09-06T21:04:45.314Z,3.90
2017-09-06T21:07:13.845Z,4.15
2017-09-06T21:09:41.162Z,5.95
2017-09-06T21:12:08.469Z,4.73
2017-09-06T21:14:35.745Z,3.13
2017-09-06T21:17:04.037Z,5.07
2017-09-06T21:19:31.052Z,5.60
2017-09-06T21:21:57.376Z,5.35
2017-09-06T21:24:23.686Z,4.28
2017-09-06T21:26:49.993Z,3.72
2017-09-06T21:29:16.283Z,2.95
2017-09-06T21:31:42.970Z,4.47
2017-09-06T21:34:09.262Z,3.78
2017-09-06T21:36:35.588Z,4.75
2017-09-06T21:39:01.898Z,4.00
2017-09-06T21:41:28.199Z,3.75
2017-09-06T21:43:54.535Z,5.57
2017-09-06T21:46:20.831Z,5.72
2017-09-06T21:48:47.186Z,5.72
2017-09-06T21:51:13.474Z,4.40
2017-09-06T21:53:39.786Z,7.53
2017-09-06T21:56:06.070Z,4.62
2017-09-06T21:58:32.435Z,3.83
2017-09-06T22:00:58.718Z,5.50
2017-09-06T22:03:25.631Z,6.18
2017-09-06T22:05:51.957Z,4.60
2017-09-06T22:08:18.265Z,4.20
2017-09-06T22:10:44.571Z,6.95
2017-09-06T22:13:10.871Z,3.25
2017-09-06T22:15:37.201Z,4.80
2017-09-06T22:18:03.468Z,3.78
2017-09-06T22:20:30.138Z,7.90
2017-09-06T22:22:56.418Z,4.20
2017-09-06T22:25:22.716Z,5.87
2017-09-06T22:27:49.040Z,6.12
2017-09-06T22:30:15.373Z,5.53
2017-09-06T22:32:41.679Z,4.95
2017-09-06T22:35:07.979Z,6.10
2017-09-06T22:37:34.285Z,4.22
2017-09-06T22:40:00.563Z,6.60
2017-09-06T22:42:27.491Z,6.50
2017-09-06T22:44:53.762Z,4.10
2017-09-06T22:47:20.065Z,5.00
2017-09-06T22:49:46.367Z,5.97
2017-09-06T22:52:12.656Z,6.65
2017-09-06T22:54:38.995Z,6.57
2017-09-06T22:57:05.257Z,13.43
2017-09-06T22:59:31.537Z,8.45
2017-09-06T23:01:57.797Z,12.00
2017-09-06T23:04:24.077Z,9.00
2017-09-06T23:06:50.378Z,7.85
2017-09-06T23:09:17.151Z,5.12
2017-09-06T23:11:43.434Z,9.27
2017-09-06T23:14:09.702Z,11.35
2017-09-06T23:16:36.010Z,15.48
2017-09-06T23:19:02.279Z,17.67
2017-09-06T23:21:28.617Z,15.68
2017-09-06T23:23:54.877Z,15.48
2017-09-06T23:26:21.186Z,19.10
2017-09-06T23:28:47.484Z,18.60
2017-09-06T23:31:14.103Z,18.60
2017-09-06T23:33:40.366Z,13.70
2017-09-06T23:36:06.650Z,8.93
2017-09-06T23:38:32.939Z,9.75
2017-09-06T23:40:59.186Z,9.10
2017-09-06T23:43:25.502Z,5.18
2017-09-06T23:45:51.769Z,8.10
2017-09-06T23:48:18.065Z,7.00
2017-09-06T23:50:44.358Z,8.95
2017-09-06T23:53:10.667Z,5.10
2017-09-06T23:55:36.946Z,9.00
2017-09-06T23:58:03.275Z,6.43
